UAL1342 KEWR-KPWM
Flight info
| Callsign | UAL1342 |
|---|---|
| Flight time | 0h 48m |
| Altitude | 27000 |
| Route | GREKI JUDDS CAM CDOGG4 |
| Aircraft | A319/M-SDE3FGHIRWY/LB1 |
Departure
| Time | 2026-05-04 19:46 |
|---|---|
| Airport | Newark Liberty International Airport (KEWR) |
Arrival
| Time | 2026-05-04 20:35 |
|---|---|
| Airport | Portland International Jetport (KPWM) |
| Time | Latitude | Longitude | Altitude | Speed | Heading |
|---|---|---|---|---|---|
| 2026-05-04 19:31 | 40.69599 | -74.17607 | 22 ft | 0 kts | 303° |
| 2026-05-04 19:36 | 40.69594 | -74.17596 | 22 ft | 3 kts | 303° |
| 2026-05-04 19:37 | 40.69584 | -74.17575 | 25 ft | 3 kts | 280° |
| 2026-05-04 19:37 | 40.69581 | -74.17553 | 23 ft | 1 kts | 283° |
| 2026-05-04 19:37 | 40.69579 | -74.17531 | 23 ft | 3 kts | 262° |
| 2026-05-04 19:37 | 40.69584 | -74.17507 | 22 ft | 3 kts | 233° |
| 2026-05-04 19:38 | 40.69596 | -74.17490 | 23 ft | 3 kts | 227° |
| 2026-05-04 19:38 | 40.69609 | -74.17470 | 24 ft | 3 kts | 227° |
| 2026-05-04 19:38 | 40.69623 | -74.17451 | 22 ft | 3 kts | 224° |
| 2026-05-04 19:38 | 40.69634 | -74.17438 | 23 ft | 1 kts | 221° |
| 2026-05-04 19:39 | 40.69645 | -74.17426 | 25 ft | 3 kts | 190° |
| 2026-05-04 19:39 | 40.69656 | -74.17427 | 23 ft | 3 kts | 120° |
| 2026-05-04 19:39 | 40.69660 | -74.17442 | 22 ft | 2 kts | 52° |
| 2026-05-04 19:39 | 40.69653 | -74.17451 | 23 ft | 2 kts | 41° |
| 2026-05-04 19:40 | 40.69651 | -74.17454 | 23 ft | 0 kts | 41° |
| 2026-05-04 19:42 | 40.69654 | -74.17450 | 24 ft | 2 kts | 41° |
| 2026-05-04 19:42 | 40.69673 | -74.17428 | 23 ft | 6 kts | 41° |
| 2026-05-04 19:42 | 40.69710 | -74.17386 | 22 ft | 8 kts | 41° |
| 2026-05-04 19:42 | 40.69760 | -74.17331 | 22 ft | 11 kts | 37° |
| 2026-05-04 19:43 | 40.69820 | -74.17260 | 24 ft | 12 kts | 45° |
| 2026-05-04 19:43 | 40.69890 | -74.17266 | 22 ft | 13 kts | 311° |
| 2026-05-04 19:43 | 40.69948 | -74.17363 | 22 ft | 14 kts | 324° |
| 2026-05-04 19:43 | 40.70052 | -74.17369 | 22 ft | 15 kts | 4° |
| 2026-05-04 19:44 | 40.70117 | -74.17287 | 22 ft | 15 kts | 82° |
| 2026-05-04 19:44 | 40.70110 | -74.17144 | 22 ft | 16 kts | 95° |
| 2026-05-04 19:44 | 40.70100 | -74.16991 | 22 ft | 17 kts | 95° |
| 2026-05-04 19:44 | 40.70089 | -74.16828 | 22 ft | 18 kts | 95° |
| 2026-05-04 19:45 | 40.70078 | -74.16654 | 22 ft | 20 kts | 95° |
| 2026-05-04 19:45 | 40.70065 | -74.16472 | 21 ft | 18 kts | 96° |
| 2026-05-04 19:45 | 40.70005 | -74.16385 | 20 ft | 15 kts | 189° |
| 2026-05-04 19:45 | 40.69820 | -74.16495 | 20 ft | 53 kts | 206° |
| 2026-05-04 19:46 | 40.69324 | -74.16811 | 24 ft | 105 kts | 206° |
| 2026-05-04 19:46 | 40.68520 | -74.17322 | 91 ft | 143 kts | 210° |
| 2026-05-04 19:46 | 40.67617 | -74.17799 | 683 ft | 144 kts | 194° |
| 2026-05-04 19:46 | 40.66586 | -74.17735 | 1224 ft | 151 kts | 179° |
| 2026-05-04 19:47 | 40.65581 | -74.18013 | 1663 ft | 157 kts | 218° |
| 2026-05-04 19:47 | 40.64955 | -74.19267 | 1971 ft | 178 kts | 251° |
| 2026-05-04 19:47 | 40.64730 | -74.20988 | 2305 ft | 206 kts | 273° |
| 2026-05-04 19:47 | 40.65105 | -74.22940 | 2770 ft | 234 kts | 286° |
| 2026-05-04 19:48 | 40.65675 | -74.25030 | 3513 ft | 247 kts | 288° |
| 2026-05-04 19:48 | 40.66275 | -74.27167 | 4531 ft | 250 kts | 288° |
| 2026-05-04 19:48 | 40.66885 | -74.29331 | 5469 ft | 255 kts | 288° |
| 2026-05-04 19:48 | 40.67651 | -74.31452 | 5854 ft | 261 kts | 304° |
| 2026-05-04 19:49 | 40.69068 | -74.32961 | 5983 ft | 268 kts | 332° |
| 2026-05-04 19:49 | 40.70916 | -74.33425 | 6031 ft | 281 kts | 1° |
| 2026-05-04 19:49 | 40.72806 | -74.32607 | 6824 ft | 291 kts | 24° |
| 2026-05-04 19:49 | 40.74577 | -74.31285 | 7764 ft | 293 kts | 27° |
| 2026-05-04 19:50 | 40.76339 | -74.29909 | 8705 ft | 296 kts | 27° |
| 2026-05-04 19:50 | 40.78106 | -74.28507 | 9678 ft | 297 kts | 27° |
| 2026-05-04 19:50 | 40.79863 | -74.27077 | 10558 ft | 299 kts | 30° |
| 2026-05-04 19:50 | 40.81490 | -74.25177 | 10889 ft | 326 kts | 43° |
| 2026-05-04 19:51 | 40.83120 | -74.22944 | 11126 ft | 349 kts | 44° |
| 2026-05-04 19:51 | 40.84828 | -74.20559 | 11546 ft | 363 kts | 44° |
| 2026-05-04 19:51 | 40.86571 | -74.18102 | 12221 ft | 369 kts | 44° |
| 2026-05-04 19:51 | 40.88335 | -74.15614 | 12911 ft | 373 kts | 44° |
| 2026-05-04 19:52 | 40.90125 | -74.13099 | 13624 ft | 377 kts | 43° |
| 2026-05-04 19:52 | 40.91939 | -74.10564 | 14244 ft | 381 kts | 43° |
| 2026-05-04 19:52 | 40.93747 | -74.08043 | 14874 ft | 384 kts | 43° |
| 2026-05-04 19:52 | 40.95621 | -74.05432 | 15509 ft | 387 kts | 43° |
| 2026-05-04 19:53 | 40.97483 | -74.02838 | 16131 ft | 391 kts | 43° |
| 2026-05-04 19:53 | 40.99361 | -74.00221 | 16755 ft | 394 kts | 42° |
| 2026-05-04 19:53 | 41.01226 | -73.97617 | 17390 ft | 397 kts | 43° |
| 2026-05-04 19:53 | 41.03157 | -73.94915 | 18045 ft | 400 kts | 42° |
| 2026-05-04 19:54 | 41.05071 | -73.92233 | 18621 ft | 403 kts | 42° |
| 2026-05-04 19:54 | 41.06977 | -73.89561 | 19202 ft | 405 kts | 42° |
| 2026-05-04 19:54 | 41.08917 | -73.86837 | 19783 ft | 408 kts | 42° |
| 2026-05-04 19:54 | 41.10870 | -73.84093 | 20376 ft | 410 kts | 42° |
| 2026-05-04 19:55 | 41.12832 | -73.81334 | 20957 ft | 412 kts | 42° |
| 2026-05-04 19:55 | 41.14804 | -73.78560 | 21502 ft | 415 kts | 42° |
| 2026-05-04 19:55 | 41.16788 | -73.75765 | 22034 ft | 417 kts | 42° |
| 2026-05-04 19:55 | 41.18780 | -73.72955 | 22560 ft | 419 kts | 41° |
| 2026-05-04 19:56 | 41.20781 | -73.70128 | 23073 ft | 421 kts | 41° |
| 2026-05-04 19:56 | 41.22793 | -73.67284 | 23561 ft | 424 kts | 41° |
| 2026-05-04 19:56 | 41.24818 | -73.64426 | 23983 ft | 426 kts | 41° |
| 2026-05-04 19:56 | 41.26852 | -73.61551 | 24422 ft | 427 kts | 41° |
| 2026-05-04 19:57 | 41.28892 | -73.58665 | 24829 ft | 430 kts | 41° |
| 2026-05-04 19:57 | 41.30944 | -73.55759 | 25232 ft | 432 kts | 41° |
| 2026-05-04 19:57 | 41.33007 | -73.52831 | 25639 ft | 434 kts | 41° |
| 2026-05-04 19:57 | 41.35075 | -73.49886 | 26051 ft | 437 kts | 41° |
| 2026-05-04 19:58 | 41.37155 | -73.46919 | 26454 ft | 439 kts | 41° |
| 2026-05-04 19:58 | 41.39242 | -73.43944 | 26808 ft | 441 kts | 41° |
| 2026-05-04 19:58 | 41.41340 | -73.40950 | 26908 ft | 442 kts | 41° |
| 2026-05-04 19:58 | 41.43438 | -73.37956 | 26905 ft | 442 kts | 41° |
| 2026-05-04 19:59 | 41.45531 | -73.34965 | 26907 ft | 442 kts | 41° |
| 2026-05-04 19:59 | 41.47628 | -73.31967 | 26909 ft | 442 kts | 41° |
| 2026-05-04 19:59 | 41.49740 | -73.28994 | 26925 ft | 441 kts | 40° |
| 2026-05-04 19:59 | 41.51884 | -73.26089 | 26919 ft | 439 kts | 39° |
| 2026-05-04 20:00 | 41.54054 | -73.23232 | 26917 ft | 438 kts | 38° |
| 2026-05-04 20:00 | 41.56240 | -73.20387 | 26921 ft | 438 kts | 38° |
| 2026-05-04 20:00 | 41.58434 | -73.17566 | 26917 ft | 436 kts | 35° |
| 2026-05-04 20:00 | 41.60844 | -73.15190 | 26924 ft | 428 kts | 25° |
| 2026-05-04 20:01 | 41.63488 | -73.13451 | 26906 ft | 420 kts | 15° |
| 2026-05-04 20:01 | 41.66268 | -73.12383 | 26899 ft | 413 kts | 5° |
| 2026-05-04 20:01 | 41.69098 | -73.11994 | 26903 ft | 407 kts | 355° |
| 2026-05-04 20:01 | 41.71905 | -73.12250 | 26902 ft | 402 kts | 348° |
| 2026-05-04 20:02 | 41.74679 | -73.12728 | 26904 ft | 402 kts | 348° |
| 2026-05-04 20:02 | 41.77487 | -73.12904 | 26907 ft | 409 kts | 0° |
| 2026-05-04 20:02 | 41.80283 | -73.12001 | 26892 ft | 421 kts | 17° |
| 2026-05-04 20:02 | 41.82778 | -73.09962 | 26893 ft | 434 kts | 33° |
| 2026-05-04 20:03 | 41.85115 | -73.07301 | 26877 ft | 435 kts | 35° |
| 2026-05-04 20:03 | 41.87404 | -73.04639 | 26882 ft | 436 kts | 35° |
| 2026-05-04 20:03 | 41.89659 | -73.01999 | 26877 ft | 436 kts | 35° |
| 2026-05-04 20:03 | 41.91971 | -72.99292 | 26866 ft | 436 kts | 35° |
| 2026-05-04 20:04 | 41.94260 | -72.96617 | 26870 ft | 435 kts | 35° |
| 2026-05-04 20:04 | 41.96548 | -72.93954 | 26878 ft | 436 kts | 34° |
| 2026-05-04 20:04 | 41.98844 | -72.91289 | 26862 ft | 436 kts | 34° |
| 2026-05-04 20:04 | 42.01112 | -72.88658 | 26865 ft | 437 kts | 34° |
| 2026-05-04 20:05 | 42.03409 | -72.85992 | 26866 ft | 437 kts | 34° |
| 2026-05-04 20:05 | 42.05710 | -72.83322 | 26849 ft | 437 kts | 34° |
| 2026-05-04 20:05 | 42.08006 | -72.80654 | 26852 ft | 436 kts | 34° |
| 2026-05-04 20:05 | 42.10299 | -72.77981 | 26850 ft | 437 kts | 35° |
| 2026-05-04 20:06 | 42.12594 | -72.75296 | 26860 ft | 437 kts | 35° |
| 2026-05-04 20:06 | 42.14888 | -72.72605 | 26849 ft | 437 kts | 35° |
| 2026-05-04 20:06 | 42.17178 | -72.69914 | 26851 ft | 437 kts | 35° |
| 2026-05-04 20:06 | 42.19473 | -72.67218 | 26814 ft | 437 kts | 35° |
| 2026-05-04 20:07 | 42.21766 | -72.64528 | 26812 ft | 437 kts | 34° |
| 2026-05-04 20:07 | 42.24063 | -72.61837 | 26813 ft | 437 kts | 34° |
| 2026-05-04 20:07 | 42.26360 | -72.59143 | 26815 ft | 437 kts | 35° |
| 2026-05-04 20:07 | 42.28653 | -72.56447 | 26813 ft | 437 kts | 35° |
| 2026-05-04 20:08 | 42.30172 | -72.54659 | 26820 ft | 437 kts | 35° |
| 2026-05-04 20:08 | 42.32457 | -72.51960 | 26817 ft | 437 kts | 35° |
| 2026-05-04 20:08 | 42.34745 | -72.49250 | 26821 ft | 437 kts | 35° |
| 2026-05-04 20:08 | 42.37033 | -72.46542 | 26824 ft | 437 kts | 35° |
| 2026-05-04 20:09 | 42.39324 | -72.43835 | 26840 ft | 437 kts | 35° |
| 2026-05-04 20:09 | 42.41612 | -72.41132 | 26841 ft | 437 kts | 35° |
| 2026-05-04 20:09 | 42.43903 | -72.38427 | 26841 ft | 437 kts | 34° |
| 2026-05-04 20:09 | 42.46192 | -72.35725 | 26859 ft | 437 kts | 35° |
| 2026-05-04 20:10 | 42.48480 | -72.33016 | 26835 ft | 436 kts | 35° |
| 2026-05-04 20:10 | 42.50754 | -72.30313 | 26842 ft | 434 kts | 35° |
| 2026-05-04 20:10 | 42.53024 | -72.27611 | 26840 ft | 434 kts | 35° |
| 2026-05-04 20:10 | 42.55289 | -72.24913 | 26850 ft | 434 kts | 35° |
| 2026-05-04 20:11 | 42.57553 | -72.22213 | 26840 ft | 433 kts | 35° |
| 2026-05-04 20:11 | 42.59813 | -72.19519 | 26841 ft | 433 kts | 35° |
| 2026-05-04 20:11 | 42.62075 | -72.16818 | 26843 ft | 433 kts | 35° |
| 2026-05-04 20:11 | 42.64333 | -72.14118 | 26839 ft | 433 kts | 35° |
| 2026-05-04 20:12 | 42.66591 | -72.11413 | 26843 ft | 433 kts | 35° |
| 2026-05-04 20:12 | 42.68850 | -72.08707 | 26843 ft | 433 kts | 35° |
| 2026-05-04 20:12 | 42.71106 | -72.06001 | 26840 ft | 433 kts | 35° |
| 2026-05-04 20:12 | 42.73360 | -72.03295 | 26839 ft | 432 kts | 35° |
| 2026-05-04 20:13 | 42.75617 | -72.00584 | 26749 ft | 433 kts | 35° |
| 2026-05-04 20:13 | 42.77872 | -71.97871 | 26485 ft | 433 kts | 35° |
| 2026-05-04 20:13 | 42.80097 | -71.95192 | 26248 ft | 433 kts | 35° |
| 2026-05-04 20:13 | 42.82350 | -71.92475 | 25993 ft | 433 kts | 35° |
| 2026-05-04 20:14 | 42.84610 | -71.89750 | 25739 ft | 433 kts | 35° |
| 2026-05-04 20:14 | 42.86852 | -71.87045 | 25192 ft | 429 kts | 35° |
| 2026-05-04 20:14 | 42.89075 | -71.84357 | 24579 ft | 425 kts | 36° |
| 2026-05-04 20:14 | 42.91280 | -71.81682 | 23942 ft | 423 kts | 36° |
| 2026-05-04 20:15 | 42.93470 | -71.79025 | 23319 ft | 420 kts | 36° |
| 2026-05-04 20:15 | 42.95644 | -71.76388 | 22677 ft | 416 kts | 36° |
| 2026-05-04 20:15 | 42.97790 | -71.73780 | 22090 ft | 411 kts | 36° |
| 2026-05-04 20:15 | 42.99912 | -71.71201 | 21516 ft | 406 kts | 36° |
| 2026-05-04 20:16 | 43.02016 | -71.68647 | 20967 ft | 403 kts | 36° |
| 2026-05-04 20:16 | 43.04102 | -71.66114 | 20433 ft | 400 kts | 36° |
| 2026-05-04 20:16 | 43.06170 | -71.63598 | 19918 ft | 396 kts | 36° |
| 2026-05-04 20:16 | 43.08218 | -71.61101 | 19409 ft | 393 kts | 36° |
| 2026-05-04 20:17 | 43.10251 | -71.58620 | 18909 ft | 390 kts | 37° |
| 2026-05-04 20:17 | 43.12264 | -71.56165 | 18422 ft | 386 kts | 37° |
| 2026-05-04 20:17 | 43.14264 | -71.53722 | 17947 ft | 382 kts | 36° |
| 2026-05-04 20:17 | 43.16220 | -71.51322 | 17570 ft | 376 kts | 36° |
| 2026-05-04 20:18 | 43.18161 | -71.48942 | 17049 ft | 374 kts | 36° |
| 2026-05-04 20:18 | 43.20094 | -71.46576 | 16528 ft | 371 kts | 36° |
| 2026-05-04 20:18 | 43.22013 | -71.44224 | 15994 ft | 369 kts | 37° |
| 2026-05-04 20:18 | 43.23924 | -71.41881 | 15456 ft | 368 kts | 37° |
| 2026-05-04 20:19 | 43.25826 | -71.39547 | 14911 ft | 366 kts | 37° |
| 2026-05-04 20:19 | 43.27717 | -71.37224 | 14360 ft | 364 kts | 37° |
| 2026-05-04 20:19 | 43.29599 | -71.34909 | 13817 ft | 363 kts | 37° |
| 2026-05-04 20:19 | 43.31475 | -71.32600 | 13217 ft | 362 kts | 37° |
| 2026-05-04 20:20 | 43.33343 | -71.30294 | 12661 ft | 359 kts | 37° |
| 2026-05-04 20:20 | 43.35195 | -71.28005 | 12103 ft | 358 kts | 37° |
| 2026-05-04 20:20 | 43.37034 | -71.25725 | 11673 ft | 352 kts | 37° |
| 2026-05-04 20:20 | 43.38809 | -71.23518 | 11538 ft | 338 kts | 37° |
| 2026-05-04 20:21 | 43.40522 | -71.21390 | 11409 ft | 326 kts | 37° |
| 2026-05-04 20:21 | 43.42178 | -71.19334 | 11269 ft | 316 kts | 36° |
| 2026-05-04 20:21 | 43.45369 | -71.15312 | 10826 ft | 314 kts | 42° |
| 2026-05-04 20:22 | 43.46674 | -71.12825 | 10596 ft | 320 kts | 58° |
| 2026-05-04 20:22 | 43.47527 | -71.10028 | 10375 ft | 322 kts | 67° |
| 2026-05-04 20:22 | 43.48307 | -71.07104 | 10142 ft | 321 kts | 67° |
| 2026-05-04 20:22 | 43.49077 | -71.04228 | 9894 ft | 320 kts | 67° |
| 2026-05-04 20:23 | 43.49846 | -71.01350 | 9644 ft | 319 kts | 67° |
| 2026-05-04 20:23 | 43.50612 | -70.98495 | 9384 ft | 317 kts | 67° |
| 2026-05-04 20:23 | 43.51376 | -70.95645 | 9127 ft | 317 kts | 67° |
| 2026-05-04 20:23 | 43.52127 | -70.92843 | 8860 ft | 316 kts | 67° |
| 2026-05-04 20:24 | 43.52890 | -70.90004 | 8591 ft | 315 kts | 67° |
| 2026-05-04 20:24 | 43.53582 | -70.87137 | 8331 ft | 316 kts | 75° |
| 2026-05-04 20:24 | 43.53831 | -70.84132 | 8071 ft | 316 kts | 91° |
| 2026-05-04 20:24 | 43.53688 | -70.81120 | 7752 ft | 315 kts | 95° |
| 2026-05-04 20:25 | 43.53518 | -70.78114 | 7487 ft | 314 kts | 96° |
| 2026-05-04 20:25 | 43.53352 | -70.75107 | 7238 ft | 314 kts | 95° |
| 2026-05-04 20:25 | 43.53190 | -70.72121 | 6988 ft | 311 kts | 95° |
| 2026-05-04 20:25 | 43.53027 | -70.69151 | 6737 ft | 311 kts | 95° |
| 2026-05-04 20:26 | 43.52862 | -70.66176 | 6498 ft | 311 kts | 95° |
| 2026-05-04 20:26 | 43.52699 | -70.63214 | 6263 ft | 309 kts | 95° |
| 2026-05-04 20:26 | 43.52535 | -70.60266 | 6008 ft | 308 kts | 95° |
| 2026-05-04 20:26 | 43.52370 | -70.57333 | 5737 ft | 306 kts | 96° |
| 2026-05-04 20:27 | 43.52203 | -70.54427 | 5484 ft | 303 kts | 95° |
| 2026-05-04 20:27 | 43.52036 | -70.51546 | 5159 ft | 301 kts | 95° |
| 2026-05-04 20:27 | 43.52020 | -70.48673 | 4849 ft | 299 kts | 87° |
| 2026-05-04 20:27 | 43.52207 | -70.45829 | 4548 ft | 297 kts | 84° |
| 2026-05-04 20:28 | 43.52430 | -70.43004 | 4230 ft | 296 kts | 84° |
| 2026-05-04 20:28 | 43.52660 | -70.40194 | 3900 ft | 294 kts | 84° |
| 2026-05-04 20:28 | 43.52890 | -70.37411 | 3689 ft | 288 kts | 84° |
| 2026-05-04 20:28 | 43.53119 | -70.34709 | 3561 ft | 280 kts | 84° |
| 2026-05-04 20:29 | 43.53346 | -70.32087 | 3432 ft | 271 kts | 83° |
| 2026-05-04 20:29 | 43.53618 | -70.29565 | 3308 ft | 262 kts | 80° |
| 2026-05-04 20:29 | 43.53935 | -70.27139 | 3189 ft | 252 kts | 79° |
| 2026-05-04 20:29 | 43.54271 | -70.24811 | 3069 ft | 243 kts | 72° |
| 2026-05-04 20:30 | 43.54930 | -70.22740 | 2995 ft | 229 kts | 62° |
| 2026-05-04 20:30 | 43.55681 | -70.20872 | 2948 ft | 218 kts | 45° |
| 2026-05-04 20:30 | 43.56786 | -70.19496 | 2683 ft | 212 kts | 28° |
| 2026-05-04 20:30 | 43.58025 | -70.18414 | 2401 ft | 209 kts | 22° |
| 2026-05-04 20:31 | 43.59352 | -70.17695 | 2135 ft | 202 kts | 10° |
| 2026-05-04 20:31 | 43.60671 | -70.17237 | 2033 ft | 190 kts | 3° |
| 2026-05-04 20:31 | 43.61954 | -70.16979 | 1988 ft | 182 kts | 358° |
| 2026-05-04 20:31 | 43.63166 | -70.17080 | 1926 ft | 167 kts | 335° |
| 2026-05-04 20:32 | 43.64127 | -70.17819 | 1651 ft | 153 kts | 312° |
| 2026-05-04 20:32 | 43.64803 | -70.18868 | 1441 ft | 136 kts | 301° |
| 2026-05-04 20:32 | 43.65296 | -70.19912 | 1359 ft | 125 kts | 293° |
| 2026-05-04 20:32 | 43.65673 | -70.20975 | 1246 ft | 122 kts | 287° |
| 2026-05-04 20:33 | 43.65928 | -70.22094 | 1090 ft | 122 kts | 276° |
| 2026-05-04 20:33 | 43.65811 | -70.23242 | 963 ft | 125 kts | 249° |
| 2026-05-04 20:33 | 43.65293 | -70.24209 | 811 ft | 125 kts | 232° |
| 2026-05-04 20:33 | 43.64702 | -70.25100 | 655 ft | 124 kts | 234° |
| 2026-05-04 20:34 | 43.64290 | -70.26126 | 542 ft | 125 kts | 255° |
| 2026-05-04 20:34 | 43.64227 | -70.27324 | 409 ft | 129 kts | 272° |
| 2026-05-04 20:34 | 43.64312 | -70.28522 | 263 ft | 123 kts | 272° |
| 2026-05-04 20:34 | 43.64393 | -70.29693 | 117 ft | 122 kts | 273° |
| 2026-05-04 20:35 | 43.64461 | -70.30790 | 60 ft | 94 kts | 275° |
| 2026-05-04 20:35 | 43.64504 | -70.31429 | 65 ft | 37 kts | 276° |
| 2026-05-04 20:35 | 43.64568 | -70.31582 | 73 ft | 19 kts | 356° |
| 2026-05-04 20:35 | 43.64637 | -70.31705 | 75 ft | 20 kts | 276° |
| 2026-05-04 20:36 | 43.64650 | -70.31902 | 72 ft | 20 kts | 275° |
| 2026-05-04 20:36 | 43.64658 | -70.32021 | 79 ft | 3 kts | 275° |
| 2026-05-04 20:36 | 43.64656 | -70.32064 | 79 ft | 6 kts | 250° |
| 2026-05-04 20:36 | 43.64595 | -70.32087 | 83 ft | 12 kts | 182° |
| 2026-05-04 20:37 | 43.64546 | -70.32012 | 82 ft | 13 kts | 95° |
| 2026-05-04 20:37 | 43.64537 | -70.31869 | 77 ft | 18 kts | 95° |
| 2026-05-04 20:37 | 43.64525 | -70.31685 | 75 ft | 19 kts | 95° |
| 2026-05-04 20:37 | 43.64512 | -70.31513 | 72 ft | 15 kts | 96° |
| 2026-05-04 20:38 | 43.64502 | -70.31356 | 65 ft | 16 kts | 94° |
| 2026-05-04 20:38 | 43.64580 | -70.31319 | 69 ft | 11 kts | 5° |
| 2026-05-04 20:38 | 43.64604 | -70.31232 | 69 ft | 10 kts | 94° |
| 2026-05-04 20:38 | 43.64601 | -70.31179 | 69 ft | 0 kts | 95° |